Time;durP1;ratioP1;P1;durP2;ratioP2;P2;SDS_P1;SDS_P2;PMS_P1;PMS_P2;Temp;Humidity;BMP_temperature;BMP_pressure;BME280_temperature;BME280_humidity;BME280_pressure;Samples;Min_cycle;Max_cycle;Signal;HPM_P1;HPM_P2
2023/06/26 00:00:05;;;;;;;11.03;4.57;;;;;;;19.04;100.00;101107.34;5026876;28;20499;-80
2023/06/26 00:02:33;;;;;;;10.63;5.30;;;;;;;18.99;100.00;101106.78;5026467;28;20460;-80
2023/06/26 00:05:02;;;;;;;10.00;5.13;;;;;;;19.02;100.00;101097.84;5026933;28;20502;-80
2023/06/26 00:07:30;;;;;;;10.60;5.43;;;;;;;18.98;100.00;101094.19;5026475;28;20436;-80
2023/06/26 00:09:58;;;;;;;10.07;4.80;;;;;;;18.96;100.00;101093.75;5026070;28;20839;-80
2023/06/26 00:12:25;;;;;;;12.60;5.50;;;;;;;18.95;100.00;101101.19;5026274;28;20448;-80
2023/06/26 00:14:51;;;;;;;12.20;5.17;;;;;;;18.97;100.00;101092.59;5026307;28;20440;-80
2023/06/26 00:17:19;;;;;;;11.00;4.93;;;;;;;18.92;100.00;101092.84;5026650;28;20432;-80
2023/06/26 00:19:45;;;;;;;11.20;5.23;;;;;;;18.93;100.00;101097.19;5026479;28;20452;-80
2023/06/26 00:22:12;;;;;;;9.80;4.90;;;;;;;18.92;100.00;101095.59;5025588;28;20447;-82
2023/06/26 00:24:41;;;;;;;9.37;4.83;;;;;;;18.92;100.00;101090.09;5021606;28;20464;-82
2023/06/26 00:27:08;;;;;;;10.30;5.53;;;;;;;18.92;100.00;101087.34;5020713;28;20488;-82
2023/06/26 00:29:35;;;;;;;10.53;5.10;;;;;;;18.90;100.00;101091.25;5021576;28;20456;-82
2023/06/26 00:32:01;;;;;;;11.17;5.03;;;;;;;18.88;100.00;101090.78;5022768;28;20447;-82
2023/06/26 00:34:28;;;;;;;10.60;5.07;;;;;;;18.92;100.00;101088.16;5023070;28;20535;-82
2023/06/26 00:36:55;;;;;;;13.53;5.20;;;;;;;18.89;100.00;101086.88;5022587;28;20452;-82
2023/06/26 00:39:21;;;;;;;9.30;5.00;;;;;;;18.80;100.00;101080.72;5021952;28;20500;-82
2023/06/26 00:41:49;;;;;;;12.63;6.30;;;;;;;18.85;100.00;101080.47;5021567;28;20491;-82
2023/06/26 00:44:16;;;;;;;10.70;5.50;;;;;;;18.84;100.00;101084.38;5022406;28;20458;-81
2023/06/26 00:46:43;;;;;;;12.63;5.07;;;;;;;18.92;100.00;101079.13;5022368;28;20679;-81
2023/06/26 00:49:10;;;;;;;10.40;5.63;;;;;;;18.84;100.00;101072.59;5020605;28;20486;-81
2023/06/26 00:51:37;;;;;;;9.87;5.23;;;;;;;18.86;100.00;101071.13;5022060;28;20530;-81
2023/06/26 00:54:04;;;;;;;8.07;4.07;;;;;;;18.86;100.00;101076.59;5022194;28;20480;-82
2023/06/26 00:56:32;;;;;;;11.10;4.70;;;;;;;18.88;100.00;101071.56;5022306;28;20451;-81
2023/06/26 00:59:00;;;;;;;10.10;5.37;;;;;;;18.90;100.00;101076.69;5020627;28;20982;-81
2023/06/26 01:01:27;;;;;;;10.07;5.20;;;;;;;18.89;100.00;101067.66;5021486;28;20810;-81
2023/06/26 01:03:54;;;;;;;12.07;5.07;;;;;;;18.93;100.00;101069.72;5021693;28;20460;-81
2023/06/26 01:06:26;;;;;;;11.20;5.00;;;;;;;18.96;100.00;101074.53;5020515;28;20448;-81
2023/06/26 01:08:53;;;;;;;11.60;5.27;;;;;;;18.88;100.00;101063.31;5020385;28;20480;-81
2023/06/26 01:11:20;;;;;;;13.30;7.03;;;;;;;18.86;100.00;101067.56;5022184;28;20586;-81
2023/06/26 01:13:47;;;;;;;10.23;5.40;;;;;;;18.86;100.00;101059.34;5023480;28;20436;-81
2023/06/26 01:16:19;;;;;;;10.57;5.50;;;;;;;18.85;100.00;101064.00;5021765;28;20460;-81
2023/06/26 01:18:48;;;;;;;11.37;5.70;;;;;;;18.83;100.00;101049.84;5021097;28;20447;-81
2023/06/26 01:21:16;;;;;;;10.80;5.07;;;;;;;18.82;100.00;101061.97;5019713;28;20480;-82
2023/06/26 01:23:56;;;;;;;11.17;4.90;;;;;;;18.80;100.00;101056.00;5020540;28;20440;-82
2023/06/26 01:26:26;;;;;;;10.90;6.63;;;;;;;18.78;100.00;101063.00;5019947;28;20880;-82
2023/06/26 01:28:54;;;;;;;11.00;5.70;;;;;;;18.76;100.00;101052.34;5019670;28;20460;-82
2023/06/26 01:31:21;;;;;;;9.77;5.13;;;;;;;18.74;100.00;101049.16;5018841;28;20515;-82
2023/06/26 01:33:48;;;;;;;11.80;5.90;;;;;;;18.77;100.00;101051.22;5020029;28;20476;-82
2023/06/26 01:36:15;;;;;;;10.27;5.90;;;;;;;18.70;100.00;101047.47;5020107;28;20472;-82
2023/06/26 01:38:41;;;;;;;11.00;6.13;;;;;;;18.72;100.00;101036.91;5018876;28;20512;-82
2023/06/26 01:41:08;;;;;;;11.77;5.90;;;;;;;18.76;100.00;101049.59;5018787;28;20958;-82
2023/06/26 01:43:44;;;;;;;14.73;6.07;;;;;;;18.77;100.00;101040.25;5019330;28;20490;-82
2023/06/26 01:46:19;;;;;;;10.80;5.87;;;;;;;18.79;100.00;101043.44;5018524;28;20498;-82
2023/06/26 01:48:57;;;;;;;13.23;6.37;;;;;;;18.70;100.00;101036.47;5017752;28;20455;-82
2023/06/26 01:51:36;;;;;;;17.20;6.23;;;;;;;18.65;100.00;101032.78;5019424;28;20514;-81
2023/06/26 01:54:10;;;;;;;10.77;5.83;;;;;;;18.65;100.00;101038.28;5019313;28;20442;-81
2023/06/26 01:56:40;;;;;;;12.50;5.57;;;;;;;18.64;100.00;101033.16;5018988;28;20507;-81
2023/06/26 01:59:09;;;;;;;13.27;7.00;;;;;;;18.65;100.00;101032.00;5018188;28;20551;-81
2023/06/26 02:01:36;;;;;;;10.53;6.23;;;;;;;18.63;100.00;101028.78;5019380;28;20545;-81
2023/06/26 02:04:03;;;;;;;9.67;5.33;;;;;;;18.64;100.00;101024.91;5019446;28;20484;-81
2023/06/26 02:06:29;;;;;;;12.90;6.30;;;;;;;18.64;100.00;101025.72;5018786;28;20527;-81
2023/06/26 02:08:57;;;;;;;10.87;5.83;;;;;;;18.63;100.00;101029.56;5020079;28;20452;-81
2023/06/26 02:11:23;;;;;;;10.67;4.50;;;;;;;18.59;100.00;101027.88;5022753;28;20881;-81
2023/06/26 02:13:50;;;;;;;13.23;6.00;;;;;;;18.57;100.00;101030.97;5022754;28;20518;-81
2023/06/26 02:16:18;;;;;;;10.80;6.03;;;;;;;18.46;100.00;101027.09;5022962;28;20484;-81
2023/06/26 02:18:45;;;;;;;11.07;5.13;;;;;;;18.51;100.00;101023.31;5021938;28;20436;-81
2023/06/26 02:21:11;;;;;;;12.47;6.60;;;;;;;18.51;100.00;101020.59;5021325;28;20475;-81
2023/06/26 02:23:38;;;;;;;14.53;5.40;;;;;;;18.43;100.00;101019.56;5022017;28;20810;-81
2023/06/26 02:26:05;;;;;;;11.80;6.00;;;;;;;18.46;100.00;101015.31;5021998;28;20467;-81
2023/06/26 02:28:34;;;;;;;10.93;5.70;;;;;;;18.40;100.00;101015.53;5021355;28;20444;-81
2023/06/26 02:31:01;;;;;;;12.57;5.70;;;;;;;18.36;100.00;101022.06;5020810;28;20483;-81
2023/06/26 02:33:29;;;;;;;12.07;5.70;;;;;;;18.38;100.00;101022.53;5020426;28;20468;-81
2023/06/26 02:35:55;;;;;;;13.33;6.67;;;;;;;18.37;100.00;101021.72;5019626;28;20994;-81
2023/06/26 02:38:22;;;;;;;11.90;6.13;;;;;;;18.44;100.00;101020.34;5019231;28;20534;-81
2023/06/26 02:40:49;;;;;;;12.20;6.00;;;;;;;18.35;100.00;101015.78;5018243;28;20468;-81
2023/06/26 02:43:16;;;;;;;10.90;5.63;;;;;;;18.30;100.00;101016.00;5018508;28;20540;-81
2023/06/26 02:45:42;;;;;;;11.27;5.90;;;;;;;18.29;100.00;101019.91;5018421;28;20518;-81
2023/06/26 02:48:09;;;;;;;10.50;5.17;;;;;;;18.28;100.00;101012.81;5017243;28;20531;-81
2023/06/26 02:50:37;;;;;;;13.73;6.03;;;;;;;18.27;100.00;101008.44;5019486;28;20551;-81
2023/06/26 02:53:03;;;;;;;11.50;6.70;;;;;;;18.24;100.00;101011.91;5018911;28;20479;-81
2023/06/26 02:55:30;;;;;;;12.00;5.60;;;;;;;18.30;100.00;101005.03;5024286;28;20468;-81
2023/06/26 02:57:57;;;;;;;10.43;5.70;;;;;;;18.29;100.00;101008.94;5025274;28;20440;-81
2023/06/26 03:00:24;;;;;;;15.67;6.00;;;;;;;18.27;100.00;101000.22;5025562;28;20495;-81
2023/06/26 03:02:53;;;;;;;11.90;5.90;;;;;;;18.26;100.00;101004.13;5025485;28;20463;-81
2023/06/26 03:05:19;;;;;;;13.43;6.07;;;;;;;18.28;100.00;101001.03;5025615;28;20475;-83
2023/06/26 03:07:48;;;;;;;14.30;6.93;;;;;;;18.28;100.00;100995.53;5023882;28;20471;-82
2023/06/26 03:10:14;;;;;;;10.13;5.53;;;;;;;18.33;100.00;100990.66;5024038;28;20463;-82
2023/06/26 03:12:41;;;;;;;12.87;6.03;;;;;;;18.32;100.00;100996.44;5022999;28;20520;-82
2023/06/26 03:15:09;;;;;;;12.20;6.70;;;;;;;18.37;100.00;100993.47;5021202;28;20798;-82
2023/06/26 03:17:35;;;;;;;11.63;5.60;;;;;;;18.38;100.00;100990.41;5022426;28;20463;-82
2023/06/26 03:20:02;;;;;;;9.93;5.60;;;;;;;18.46;100.00;100994.19;5021622;28;21078;-81
2023/06/26 03:22:28;;;;;;;13.43;7.03;;;;;;;18.41;100.00;100988.91;5020970;28;20444;-81
2023/06/26 03:24:56;;;;;;;12.47;5.97;;;;;;;18.50;100.00;100995.06;5022546;28;20543;-81
2023/06/26 03:27:23;;;;;;;13.30;6.00;;;;;;;18.50;100.00;100986.03;5021781;28;20448;-81
2023/06/26 03:29:50;;;;;;;13.60;6.47;;;;;;;18.55;100.00;100983.88;5021524;28;20519;-81
2023/06/26 03:32:16;;;;;;;9.70;5.40;;;;;;;18.59;100.00;100986.72;5019878;28;21021;-81
2023/06/26 03:34:43;;;;;;;11.87;5.80;;;;;;;18.64;100.00;100981.00;5019608;28;21022;-82
2023/06/26 03:37:14;;;;;;;14.90;6.87;;;;;;;18.64;100.00;100976.31;5019766;28;20515;-81
2023/06/26 03:39:47;;;;;;;12.13;6.83;;;;;;;18.64;100.00;100978.28;5023505;28;20476;-81
2023/06/26 03:42:16;;;;;;;12.83;6.00;;;;;;;18.65;100.00;100966.13;5025870;28;20435;-81
2023/06/26 03:44:42;;;;;;;10.43;5.73;;;;;;;18.67;100.00;100974.81;5026299;28;20579;-81
2023/06/26 03:47:09;;;;;;;11.50;6.03;;;;;;;18.68;100.00;100973.66;5025967;28;20440;-81
2023/06/26 03:49:36;;;;;;;14.47;6.50;;;;;;;18.69;100.00;100975.31;5026381;28;20488;-81
2023/06/26 03:52:02;;;;;;;9.80;5.83;;;;;;;18.67;100.00;100972.06;5024775;28;20492;-81
2023/06/26 03:54:29;;;;;;;12.70;6.43;;;;;;;18.68;100.00;100968.16;5025250;28;20436;-81
2023/06/26 03:56:56;;;;;;;9.50;5.30;;;;;;;18.76;100.00;100985.69;5025714;28;20802;-81
2023/06/26 03:59:24;;;;;;;13.37;6.83;;;;;;;18.78;100.00;100983.41;5027685;28;20495;-81
2023/06/26 04:01:51;;;;;;;13.20;6.80;;;;;;;18.79;100.00;100982.25;5025974;28;20436;-81
2023/06/26 04:04:17;;;;;;;11.97;6.10;;;;;;;18.74;100.00;100977.81;5025093;28;20504;-81
2023/06/26 04:06:44;;;;;;;13.23;6.30;;;;;;;18.81;100.00;100979.94;5025450;28;20476;-81
2023/06/26 04:09:12;;;;;;;11.30;6.00;;;;;;;18.87;100.00;100981.31;5025596;28;20464;-81
2023/06/26 04:11:38;;;;;;;11.13;6.03;;;;;;;18.92;100.00;100977.53;5027191;28;20523;-81
2023/06/26 04:14:11;;;;;;;14.57;7.03;;;;;;;18.92;100.00;100970.09;5024802;28;20451;-81
2023/06/26 04:16:39;;;;;;;11.87;5.80;;;;;;;18.91;100.00;100976.75;5024313;28;20912;-81
2023/06/26 04:19:06;;;;;;;10.80;6.30;;;;;;;18.90;100.00;100973.19;5022580;28;20499;-81
2023/06/26 04:21:33;;;;;;;11.47;6.60;;;;;;;18.90;100.00;100970.47;5022137;28;20448;-81
2023/06/26 04:23:59;;;;;;;10.77;6.03;;;;;;;18.97;100.00;100964.34;5021379;28;20485;-81
2023/06/26 04:26:27;;;;;;;10.80;5.17;;;;;;;19.05;100.00;100965.38;5020860;28;20486;-81
2023/06/26 04:28:54;;;;;;;16.30;7.57;;;;;;;19.13;100.00;100964.44;5020808;28;20503;-81
2023/06/26 04:31:21;;;;;;;13.53;5.47;;;;;;;19.20;100.00;100958.31;5020036;28;20494;-81
2023/06/26 04:33:50;;;;;;;9.60;4.93;;;;;;;19.27;100.00;100961.28;5017943;28;20452;-81
2023/06/26 04:36:17;;;;;;;11.40;5.77;;;;;;;19.31;100.00;100960.22;5018308;28;20518;-81
2023/06/26 04:38:44;;;;;;;10.93;5.60;;;;;;;19.40;100.00;100963.59;5017755;28;20531;-81
2023/06/26 04:41:10;;;;;;;15.63;6.30;;;;;;;19.46;100.00;100966.88;5017323;28;20474;-81
2023/06/26 04:43:37;;;;;;;13.73;7.13;;;;;;;19.53;100.00;100967.09;5017583;28;20531;-81
2023/06/26 04:46:04;;;;;;;12.10;6.23;;;;;;;19.62;100.00;100964.22;5016997;28;20534;-81
2023/06/26 04:48:31;;;;;;;11.27;5.97;;;;;;;19.76;100.00;100963.78;5016366;28;20542;-81
2023/06/26 04:50:59;;;;;;;11.40;6.27;;;;;;;19.89;100.00;100957.03;5016288;28;20455;-82
2023/06/26 04:53:26;;;;;;;14.20;7.00;;;;;;;20.02;100.00;100955.78;5017005;28;20543;-82
2023/06/26 04:55:53;;;;;;;13.60;7.43;;;;;;;20.14;100.00;100960.38;5016861;28;20447;-81
2023/06/26 04:58:20;;;;;;;12.27;7.03;;;;;;;20.25;100.00;100953.19;5018006;28;20935;-81
2023/06/26 05:00:47;;;;;;;14.33;7.57;;;;;;;20.40;100.00;100960.59;5019372;28;20508;-82
2023/06/26 05:03:16;;;;;;;12.10;6.73;;;;;;;20.52;100.00;100962.47;5018048;28;20444;-83
2023/06/26 05:05:43;;;;;;;10.17;6.10;;;;;;;20.64;100.00;100958.81;5016882;28;20498;-81
2023/06/26 05:08:18;;;;;;;12.47;6.60;;;;;;;20.75;100.00;100959.81;5019105;28;20883;-81
2023/06/26 05:10:46;;;;;;;12.73;6.80;;;;;;;20.81;100.00;100957.59;5017988;28;20496;-81
2023/06/26 05:13:14;;;;;;;13.20;5.80;;;;;;;20.85;100.00;100959.28;5017641;28;20495;-82
2023/06/26 05:15:41;;;;;;;10.27;5.10;;;;;;;20.83;100.00;100958.81;5017972;28;20436;-82
2023/06/26 05:18:08;;;;;;;12.07;5.27;;;;;;;20.83;100.00;100958.81;5018180;28;20535;-83
2023/06/26 05:20:35;;;;;;;12.37;5.47;;;;;;;20.82;100.00;100954.47;5021014;28;20471;-82
2023/06/26 05:23:02;;;;;;;11.27;5.43;;;;;;;20.83;100.00;100958.81;5023752;28;20928;-82
2023/06/26 05:25:31;;;;;;;12.10;6.70;;;;;;;20.84;100.00;100954.91;5022660;28;20973;-83
2023/06/26 05:27:58;;;;;;;11.77;5.53;;;;;;;20.85;100.00;100956.50;5022188;28;20543;-80
2023/06/26 05:30:26;;;;;;;8.00;4.17;;;;;;;20.87;100.00;100954.19;5021983;28;20491;-82
2023/06/26 05:32:54;;;;;;;12.23;5.40;;;;;;;20.90;100.00;100950.72;5021424;28;20490;-81
2023/06/26 05:35:22;;;;;;;10.90;5.90;;;;;;;20.99;100.00;100952.47;5022821;28;20456;-79
2023/06/26 05:37:50;;;;;;;11.77;5.73;;;;;;;21.07;100.00;100946.72;5023173;28;20448;-80
2023/06/26 05:40:18;;;;;;;12.77;6.50;;;;;;;21.14;100.00;100941.34;5021935;28;20511;-80
2023/06/26 05:42:47;;;;;;;10.20;4.80;;;;;;;21.22;99.15;100942.28;5021723;28;20462;-80
2023/06/26 05:45:14;;;;;;;15.20;6.60;;;;;;;21.33;92.23;100942.50;5020561;28;20448;-79
2023/06/26 05:47:41;;;;;;;12.07;5.30;;;;;;;21.49;90.39;100945.97;5019485;28;20506;-82
2023/06/26 05:50:09;;;;;;;12.00;5.57;;;;;;;21.62;90.76;100935.56;5017675;28;20594;-84
2023/06/26 05:52:38;;;;;;;11.93;5.40;;;;;;;21.68;90.27;100928.56;5017727;28;20535;-83
2023/06/26 05:55:06;;;;;;;10.37;4.80;;;;;;;21.78;88.69;100927.13;5016569;28;20530;-83
2023/06/26 05:57:33;;;;;;;8.83;4.90;;;;;;;21.91;84.46;100923.84;5017149;28;20471;-82
2023/06/26 06:00:03;;;;;;;10.10;4.60;;;;;;;22.07;83.53;100922.88;5018439;28;20456;-82
2023/06/26 06:02:29;;;;;;;13.80;5.10;;;;;;;22.17;83.59;100925.81;5016072;28;20512;-82
2023/06/26 06:04:56;;;;;;;10.03;4.60;;;;;;;22.29;84.42;100919.31;5017259;28;20443;-82
2023/06/26 06:07:22;;;;;;;11.20;4.80;;;;;;;22.35;86.18;100923.31;5017622;28;20448;-80
2023/06/26 06:09:49;;;;;;;8.03;3.97;;;;;;;22.37;87.15;100918.22;5017545;28;20473;-81
2023/06/26 06:12:16;;;;;;;8.67;4.30;;;;;;;22.40;88.38;100916.69;5017906;28;20526;-81
2023/06/26 06:14:42;;;;;;;8.50;4.10;;;;;;;22.41;90.15;100916.31;5017241;28;20506;-81
2023/06/26 06:17:10;;;;;;;9.63;4.47;;;;;;;22.43;90.72;100921.47;5018132;28;20448;-81
2023/06/26 06:19:37;;;;;;;10.80;5.37;;;;;;;22.41;89.26;100915.53;5018070;28;20474;-80
2023/06/26 06:22:04;;;;;;;12.07;4.70;;;;;;;22.48;87.69;100920.34;5017934;28;20436;-81
2023/06/26 06:24:31;;;;;;;10.00;4.13;;;;;;;22.53;86.54;100920.00;5017989;28;20475;-80
2023/06/26 06:26:57;;;;;;;10.73;4.93;;;;;;;22.62;86.12;100915.00;5016012;28;20527;-80
2023/06/26 06:29:24;;;;;;;11.90;4.70;;;;;;;22.74;84.36;100906.47;5016622;28;20496;-80
2023/06/26 06:31:51;;;;;;;8.23;4.03;;;;;;;22.85;82.01;100914.91;5015617;28;20526;-81
2023/06/26 06:34:19;;;;;;;10.20;4.77;;;;;;;22.98;80.58;100909.97;5015560;28;20501;-80
2023/06/26 06:36:46;;;;;;;10.93;4.80;;;;;;;23.10;80.75;100910.47;5015316;28;20480;-81
2023/06/26 06:39:12;;;;;;;8.70;4.17;;;;;;;23.18;81.24;100908.59;5014536;28;20480;-80
2023/06/26 06:41:39;;;;;;;8.60;3.50;;;;;;;23.22;79.32;100909.41;5016405;28;20438;-81
2023/06/26 06:44:06;;;;;;;9.27;3.97;;;;;;;23.33;77.91;100915.88;5019341;28;20460;-80
2023/06/26 06:46:34;;;;;;;8.23;4.00;;;;;;;23.40;79.17;100910.38;5023423;28;20436;-81
2023/06/26 06:49:01;;;;;;;9.60;3.90;;;;;;;23.48;78.92;100908.50;5022860;28;20535;-81
2023/06/26 06:51:29;;;;;;;7.27;3.30;;;;;;;23.59;73.76;100903.03;5003792;28;20503;-81
2023/06/26 06:53:56;;;;;;;11.73;4.63;;;;;;;23.74;74.84;100904.78;5023821;28;20510;-81
2023/06/26 06:56:23;;;;;;;7.83;4.07;;;;;;;23.91;74.08;100906.91;5024316;28;20447;-81
2023/06/26 06:58:49;;;;;;;16.33;5.03;;;;;;;24.05;73.20;100905.41;5025952;28;20876;-80
2023/06/26 07:01:16;;;;;;;10.27;4.23;;;;;;;24.10;72.66;100908.63;5027202;28;20522;-81
2023/06/26 07:03:43;;;;;;;8.50;3.90;;;;;;;24.22;71.05;100909.50;5026194;28;20978;-80
2023/06/26 07:06:09;;;;;;;9.17;3.73;;;;;;;24.28;72.99;100896.84;5026843;28;20812;-80
2023/06/26 07:08:38;;;;;;;10.50;3.63;;;;;;;24.33;73.38;100900.03;5027503;28;20455;-80
2023/06/26 07:11:05;;;;;;;8.33;3.63;;;;;;;24.43;71.14;100904.06;5025682;28;20454;-80
2023/06/26 07:13:31;;;;;;;7.70;3.90;;;;;;;24.51;71.32;100899.38;5027333;28;20479;-80
2023/06/26 07:15:58;;;;;;;6.17;2.83;;;;;;;24.52;73.14;100903.72;5029304;28;20800;-80
2023/06/26 07:18:25;;;;;;;7.90;3.60;;;;;;;24.54;73.95;100893.06;5026679;28;20467;-81
2023/06/26 07:20:51;;;;;;;8.10;3.27;;;;;;;24.61;72.18;100898.63;5027467;28;20543;-80
2023/06/26 07:23:18;;;;;;;7.77;3.90;;;;;;;24.66;70.33;100901.03;5027198;28;20468;-80
2023/06/26 07:25:46;;;;;;;7.30;3.20;;;;;;;24.70;70.85;100901.81;5027572;28;20452;-80
2023/06/26 07:28:13;;;;;;;8.53;3.87;;;;;;;24.81;69.17;100897.13;5026622;28;20459;-80
2023/06/26 07:30:40;;;;;;;6.40;2.70;;;;;;;24.87;70.50;100903.06;5028255;28;20499;-80
2023/06/26 07:33:07;;;;;;;7.80;3.10;;;;;;;24.86;72.82;100891.19;5026861;28;20574;-80
2023/06/26 07:35:34;;;;;;;8.67;3.37;;;;;;;24.94;71.24;100894.00;5026424;28;20947;-79
2023/06/26 07:38:01;;;;;;;8.90;3.63;;;;;;;24.97;70.53;100893.19;5027039;28;20472;-80
2023/06/26 07:40:28;;;;;;;8.30;3.40;;;;;;;25.05;68.51;100883.72;5026666;28;20503;-79
2023/06/26 07:42:58;;;;;;;7.80;3.20;;;;;;;25.20;68.07;100879.03;5027074;28;20471;-80
2023/06/26 07:45:24;;;;;;;9.97;3.50;;;;;;;25.31;69.60;100882.63;5026529;28;20912;-80
2023/06/26 07:47:51;;;;;;;7.40;2.87;;;;;;;25.30;69.91;100881.03;5027235;28;20452;-79
2023/06/26 07:50:21;;;;;;;7.20;2.87;;;;;;;25.33;65.36;100883.03;5026518;28;20460;-80
2023/06/26 07:52:48;;;;;;;7.87;3.33;;;;;;;25.41;65.81;100879.88;5027894;28;20574;-79
2023/06/26 07:55:14;;;;;;;8.10;3.60;;;;;;;25.54;66.67;100874.69;5027207;28;20866;-80
2023/06/26 07:57:41;;;;;;;7.60;3.30;;;;;;;25.63;64.22;100880.66;5026470;28;20520;-80
2023/06/26 08:00:11;;;;;;;7.33;2.63;;;;;;;25.76;63.21;100883.00;5025528;28;20457;-80
2023/06/26 08:02:38;;;;;;;7.77;3.37;;;;;;;25.82;63.38;100871.16;5028318;28;20523;-80
2023/06/26 08:05:05;;;;;;;7.10;3.20;;;;;;;25.83;63.63;100869.97;5026599;28;20436;-80
2023/06/26 08:07:32;;;;;;;7.57;2.87;;;;;;;25.91;60.26;100874.31;5022982;28;20479;-79
2023/06/26 08:09:58;;;;;;;7.13;2.43;;;;;;;26.02;59.30;100865.16;5024165;28;20488;-80
2023/06/26 08:12:28;;;;;;;8.83;2.87;;;;;;;26.15;59.69;100867.13;5023813;28;20495;-80
2023/06/26 08:14:54;;;;;;;6.83;2.93;;;;;;;26.25;58.90;100868.28;5024920;28;20471;-79
2023/06/26 08:17:23;;;;;;;6.43;2.67;;;;;;;26.29;59.48;100860.72;5022612;28;20828;-80
2023/06/26 08:19:49;;;;;;;6.60;2.40;;;;;;;26.35;56.46;100867.47;5022380;28;20460;-81
2023/06/26 08:22:16;;;;;;;7.43;2.50;;;;;;;26.46;58.11;100861.88;5025197;28;20448;-80
2023/06/26 08:24:43;;;;;;;6.20;2.90;;;;;;;26.54;57.09;100865.44;5023204;28;20869;-80
2023/06/26 08:27:09;;;;;;;6.87;2.83;;;;;;;26.63;56.23;100855.47;5024606;28;20530;-81
2023/06/26 08:29:36;;;;;;;6.87;2.50;;;;;;;26.66;57.97;100863.00;5025302;28;20472;-79
2023/06/26 08:32:03;;;;;;;7.27;3.00;;;;;;;26.68;55.96;100865.38;5025650;28;20448;-80
2023/06/26 08:34:31;;;;;;;7.33;2.87;;;;;;;26.81;55.51;100860.13;5026115;28;20484;-80
2023/06/26 08:36:58;;;;;;;7.73;3.00;;;;;;;26.92;57.54;100852.53;5025325;28;20901;-79
2023/06/26 08:39:24;;;;;;;7.37;3.27;;;;;;;26.97;56.35;100845.75;5023397;28;20486;-79
2023/06/26 08:41:51;;;;;;;8.53;2.87;;;;;;;27.00;56.41;100850.50;5026230;28;20424;-79
2023/06/26 08:44:18;;;;;;;6.03;3.03;;;;;;;27.06;55.82;100852.44;5028223;28;20471;-80
2023/06/26 08:46:45;;;;;;;6.30;2.53;;;;;;;27.10;53.78;100850.47;5024901;28;20467;-80
2023/06/26 08:49:22;;;;;;;6.03;2.40;;;;;;;27.17;55.15;100841.25;5024967;28;20472;-79
2023/06/26 08:51:57;;;;;;;8.80;2.70;;;;;;;27.23;55.49;100842.44;5025332;28;20915;-78
2023/06/26 08:54:41;;;;;;;8.73;3.57;;;;;;;27.21;59.76;100838.47;5023001;28;20468;-79
2023/06/26 08:57:08;;;;;;;9.03;3.93;;;;;;;27.20;59.24;100836.88;5023519;28;20474;-79
2023/06/26 08:59:35;;;;;;;6.20;2.50;;;;;;;27.26;55.93;100838.81;5024029;28;20496;-80
2023/06/26 09:02:04;;;;;;;7.80;3.37;;;;;;;27.33;56.30;100841.53;5026288;28;20427;-80
2023/06/26 09:04:31;;;;;;;6.40;2.30;;;;;;;27.29;57.98;100838.00;5019960;28;20948;-78
2023/06/26 09:06:59;;;;;;;5.57;2.13;;;;;;;27.28;52.98;100835.63;5022932;28;20432;-80
2023/06/26 09:09:26;;;;;;;6.70;2.63;;;;;;;27.39;55.00;100837.13;5026015;28;20496;-81
2023/06/26 09:11:52;;;;;;;7.20;2.63;;;;;;;27.46;52.52;100830.72;5022107;28;20459;-79
2023/06/26 09:14:19;;;;;;;5.57;2.30;;;;;;;27.55;52.06;100825.47;5021755;28;20511;-80
2023/06/26 09:16:46;;;;;;;8.43;2.70;;;;;;;27.57;51.36;100825.03;5019430;28;20464;-80
2023/06/26 09:19:14;;;;;;;6.70;2.40;;;;;;;27.62;51.70;100819.81;5019507;28;20496;-78
2023/06/26 09:21:41;;;;;;;6.30;3.20;;;;;;;27.69;53.35;100823.75;5019559;28;20445;-78
2023/06/26 09:24:11;;;;;;;8.03;2.90;;;;;;;27.72;53.03;100815.38;5019539;28;20476;-79
2023/06/26 09:26:38;;;;;;;6.23;2.57;;;;;;;27.73;51.58;100811.41;5019107;28;20471;-78
2023/06/26 09:29:06;;;;;;;10.87;3.00;;;;;;;27.75;49.85;100817.31;5019039;28;20559;-79
2023/06/26 09:31:34;;;;;;;6.60;2.50;;;;;;;27.76;53.17;100810.56;5018435;28;20444;-77
2023/06/26 09:34:01;;;;;;;8.47;3.33;;;;;;;27.85;51.70;100810.88;5019496;28;20488;-78
2023/06/26 09:36:32;;;;;;;6.63;2.43;;;;;;;27.97;49.37;100809.53;5019194;28;20511;-78
2023/06/26 09:39:00;;;;;;;8.70;2.20;;;;;;;28.13;50.61;100806.97;5017612;28;20483;-80
2023/06/26 09:41:28;;;;;;;7.57;2.27;;;;;;;28.16;52.19;100806.16;5015260;28;20524;-79
2023/06/26 09:43:55;;;;;;;5.50;1.97;;;;;;;28.25;49.44;100802.84;5015467;28;20447;-79
2023/06/26 09:46:26;;;;;;;4.97;1.87;;;;;;;28.36;48.55;100802.75;5014944;28;20496;-79
2023/06/26 09:49:01;;;;;;;6.93;2.30;;;;;;;28.37;50.49;100793.94;5015069;28;20468;-79
2023/06/26 09:51:30;;;;;;;5.57;2.50;;;;;;;28.48;49.74;100799.41;5015145;28;20507;-79
2023/06/26 09:53:57;;;;;;;6.37;2.43;;;;;;;28.55;49.72;100790.13;5015318;28;20538;-78
2023/06/26 09:56:23;;;;;;;6.60;2.40;;;;;;;28.57;48.49;100793.31;5015641;28;20451;-78
2023/06/26 09:58:52;;;;;;;6.63;2.47;;;;;;;28.48;49.89;100784.69;5014929;28;20534;-78
2023/06/26 10:01:19;;;;;;;7.77;2.50;;;;;;;28.58;51.08;100792.09;5015493;28;20527;-79
2023/06/26 10:03:46;;;;;;;7.37;2.47;;;;;;;28.59;49.84;100788.09;5014810;28;20440;-79
2023/06/26 10:06:13;;;;;;;5.83;2.37;;;;;;;28.63;51.02;100777.69;5015015;28;20468;-79
2023/06/26 10:08:40;;;;;;;7.07;2.50;;;;;;;28.70;52.68;100771.22;5014889;28;20815;-78
2023/06/26 10:11:09;;;;;;;9.60;2.33;;;;;;;28.69;52.67;100778.81;5014257;28;20969;-79
2023/06/26 10:13:39;;;;;;;6.23;2.23;;;;;;;28.79;47.41;100777.84;5014216;28;20505;-79
2023/06/26 10:16:09;;;;;;;6.13;2.63;;;;;;;28.91;49.45;100768.13;5014121;28;20444;-78
2023/06/26 10:18:39;;;;;;;6.20;2.30;;;;;;;28.90;50.34;100760.94;5013926;28;20471;-78
2023/06/26 10:21:07;;;;;;;5.20;2.13;;;;;;;28.97;49.82;100768.44;5014237;28;20886;-78
2023/06/26 10:23:35;;;;;;;7.17;2.50;;;;;;;29.06;47.28;100763.13;5017293;28;21013;-79
2023/06/26 10:26:04;;;;;;;7.90;2.77;;;;;;;29.16;48.55;100760.13;5018359;28;20491;-81
2023/06/26 10:28:34;;;;;;;7.37;2.57;;;;;;;29.24;48.75;100763.59;5018644;28;20433;-78
2023/06/26 10:31:03;;;;;;;7.00;2.60;;;;;;;29.34;48.34;100743.06;5018029;28;20871;-81
2023/06/26 10:33:32;;;;;;;7.13;3.07;;;;;;;29.37;49.25;100747.81;5019922;28;20476;-79
2023/06/26 10:36:14;;;;;;;7.80;2.73;;;;;;;29.52;47.37;100747.53;5019492;28;20452;-79
2023/06/26 10:38:51;;;;;;;5.57;1.90;;;;;;;29.58;49.01;100743.09;5019071;28;20436;-78
2023/06/26 10:41:22;;;;;;;5.70;2.20;;;;;;;29.66;49.11;100736.13;5019431;28;20414;-80
2023/06/26 10:44:06;;;;;;;5.27;1.87;;;;;;;29.71;47.85;100744.03;5019494;28;20417;-80
2023/06/26 10:46:34;;;;;;;6.67;2.60;;;;;;;29.72;48.18;100731.63;5019463;28;20421;-80
2023/06/26 10:49:03;;;;;;;7.17;2.67;;;;;;;29.83;47.01;100734.97;5019354;28;20511;-79
2023/06/26 10:51:30;;;;;;;5.70;2.07;;;;;;;29.90;46.58;100731.28;5018533;28;20452;-80
2023/06/26 10:53:57;;;;;;;5.90;2.47;;;;;;;29.95;49.63;100719.59;5019231;28;21043;-79
2023/06/26 10:56:42;;;;;;;5.17;2.10;;;;;;;30.14;50.04;100721.59;5019336;28;20449;-79
2023/06/26 10:59:19;;;;;;;5.10;2.00;;;;;;;30.25;46.85;100726.19;5019448;28;20468;-79
2023/06/26 11:01:47;;;;;;;5.90;2.63;;;;;;;30.38;48.81;100719.47;5020291;28;20474;-81
2023/06/26 11:04:18;;;;;;;5.83;2.10;;;;;;;30.59;49.02;100717.38;5019006;28;20453;-79
2023/06/26 11:06:48;;;;;;;5.30;2.57;;;;;;;30.65;48.99;100708.06;5018474;28;20502;-80
2023/06/26 11:09:16;;;;;;;6.97;3.10;;;;;;;30.67;45.88;100718.78;5019350;28;20471;-81
2023/06/26 11:12:02;;;;;;;8.80;2.77;;;;;;;30.93;46.97;100713.41;5019569;28;20866;-81
2023/06/26 11:14:28;;;;;;;6.27;2.43;;;;;;;31.08;44.66;100711.84;5019216;28;21002;-79
2023/06/26 11:16:56;;;;;;;6.23;2.53;;;;;;;31.18;45.75;100713.56;5018478;28;20436;-80
2023/06/26 11:19:27;;;;;;;7.00;2.27;;;;;;;31.62;45.16;100708.41;5019484;28;20553;-78